Time;durP1;ratioP1;P1;durP2;ratioP2;P2;SDS_P1;SDS_P2;PMS_P1;PMS_P2;Temp;Humidity;BMP_temperature;BMP_pressure;BME280_temperature;BME280_humidity;BME280_pressure;Samples;Min_cycle;Max_cycle;Signal;HPM_P1;HPM_P2
2023/07/03 00:00:27;;;;;;;22.20;13.07;;;;;;;14.16;100.00;95644.03;5118310;27;24532;-73
2023/07/03 00:02:53;;;;;;;25.92;14.43;;;;;;;14.15;100.00;95652.78;5113016;27;24437;-73
2023/07/03 00:05:21;;;;;;;24.90;14.38;;;;;;;14.25;100.00;95648.53;5122080;27;24437;-74
2023/07/03 00:07:48;;;;;;;26.02;14.18;;;;;;;14.27;100.00;95651.81;5117584;27;24521;-73
2023/07/03 00:10:15;;;;;;;20.65;13.60;;;;;;;14.34;100.00;95648.75;5108114;28;24429;-73
2023/07/03 00:12:41;;;;;;;19.48;13.32;;;;;;;14.28;100.00;95652.66;5110983;27;24461;-73
2023/07/03 00:15:09;;;;;;;26.27;14.00;;;;;;;14.44;100.00;95647.88;5123782;27;24429;-73
2023/07/03 00:17:38;;;;;;;21.63;13.50;;;;;;;14.41;100.00;95640.31;5117473;27;24438;-73
2023/07/03 00:20:05;;;;;;;20.33;13.20;;;;;;;14.25;100.00;95640.72;5104111;27;24520;-73
2023/07/03 00:22:32;;;;;;;23.90;15.23;;;;;;;13.94;100.00;95651.88;5109408;28;24442;-73
2023/07/03 00:24:58;;;;;;;26.77;14.32;;;;;;;13.54;100.00;95650.59;5114113;27;24994;-73
2023/07/03 00:27:25;;;;;;;20.05;14.18;;;;;;;13.44;100.00;95641.81;5119435;27;24494;-73
2023/07/03 00:29:51;;;;;;;23.27;14.77;;;;;;;13.62;100.00;95634.38;5115538;27;24424;-73
2023/07/03 00:32:17;;;;;;;19.00;13.57;;;;;;;13.87;100.00;95637.66;5121372;27;24440;-73
2023/07/03 00:34:45;;;;;;;18.37;13.40;;;;;;;14.07;100.00;95639.56;5115180;27;24531;-72
2023/07/03 00:37:14;;;;;;;21.02;13.38;;;;;;;14.14;100.00;95640.72;5116116;27;24436;-72
2023/07/03 00:39:40;;;;;;;22.85;13.65;;;;;;;14.27;100.00;95641.41;5111890;27;24448;-72
2023/07/03 00:42:07;;;;;;;22.27;13.80;;;;;;;14.41;100.00;95649.91;5116396;27;24489;-72
2023/07/03 00:44:33;;;;;;;27.83;14.95;;;;;;;14.38;100.00;95637.13;5117708;27;24482;-73
2023/07/03 00:47:00;;;;;;;23.42;14.52;;;;;;;14.36;100.00;95634.66;5111505;27;24816;-73
2023/07/03 00:49:27;;;;;;;20.70;14.47;;;;;;;14.30;100.00;95632.53;5117309;27;24433;-73
2023/07/03 00:51:56;;;;;;;21.38;13.30;;;;;;;14.50;100.00;95630.97;5119028;27;24975;-73
2023/07/03 00:54:23;;;;;;;22.60;14.13;;;;;;;14.52;100.00;95632.47;5107154;27;24877;-73
2023/07/03 00:56:49;;;;;;;22.13;13.98;;;;;;;14.47;100.00;95632.00;5110339;27;24489;-72
2023/07/03 00:59:17;;;;;;;23.25;13.93;;;;;;;14.42;100.00;95638.53;5117453;27;24441;-73
2023/07/03 01:01:49;;;;;;;25.08;14.75;;;;;;;14.28;100.00;95632.66;5115451;27;24479;-73
2023/07/03 01:04:20;;;;;;;23.70;15.00;;;;;;;14.16;100.00;95638.81;5111838;27;24436;-73
2023/07/03 01:06:51;;;;;;;22.63;14.63;;;;;;;14.22;100.00;95633.13;5104575;27;24453;-73
2023/07/03 01:09:21;;;;;;;20.88;14.05;;;;;;;14.36;100.00;95633.81;5115275;27;24495;-73
2023/07/03 01:11:49;;;;;;;25.30;13.60;;;;;;;14.40;100.00;95627.41;5111396;27;24434;-72
2023/07/03 01:14:19;;;;;;;19.17;13.35;;;;;;;14.47;100.00;95626.78;5115352;27;24483;-72
2023/07/03 01:16:48;;;;;;;20.77;13.57;;;;;;;14.48;100.00;95627.63;5108675;27;24809;-73
2023/07/03 01:19:21;;;;;;;26.92;14.35;;;;;;;14.44;100.00;95621.00;5113897;27;24830;-73
2023/07/03 01:21:55;;;;;;;24.77;14.95;;;;;;;14.39;100.00;95624.00;5121666;27;24417;-72
2023/07/03 01:24:31;;;;;;;21.80;13.65;;;;;;;14.45;100.00;95618.25;5107274;27;24494;-72
2023/07/03 01:27:00;;;;;;;25.58;13.10;;;;;;;14.42;100.00;95620.28;5119810;27;24975;-73
2023/07/03 01:29:27;;;;;;;23.00;14.85;;;;;;;14.40;100.00;95617.81;5101499;28;24442;-72
2023/07/03 01:31:56;;;;;;;18.58;13.07;;;;;;;14.52;100.00;95621.25;5116260;27;24438;-73
2023/07/03 01:34:23;;;;;;;21.20;12.98;;;;;;;14.51;100.00;95611.78;5113443;27;24568;-72
2023/07/03 01:36:50;;;;;;;22.88;13.63;;;;;;;14.49;100.00;95618.84;5116980;27;24441;-72
2023/07/03 01:39:17;;;;;;;21.55;14.07;;;;;;;14.38;100.00;95616.28;5116229;27;24438;-72
2023/07/03 01:41:45;;;;;;;25.80;13.82;;;;;;;14.47;100.00;95616.38;5111623;27;25009;-73
2023/07/03 01:44:12;;;;;;;22.52;13.50;;;;;;;14.53;100.00;95617.66;5111559;27;24433;-73
2023/07/03 01:46:38;;;;;;;19.92;13.57;;;;;;;14.55;100.00;95621.00;5113044;27;24499;-73
2023/07/03 01:49:12;;;;;;;26.27;14.18;;;;;;;14.27;100.00;95619.72;5119056;27;24441;-73
2023/07/03 01:51:48;;;;;;;22.10;13.52;;;;;;;14.13;100.00;95626.06;5124500;27;25014;-73
2023/07/03 01:54:21;;;;;;;24.08;14.10;;;;;;;14.16;100.00;95617.16;5112764;27;24514;-73
2023/07/03 01:56:50;;;;;;;23.70;14.13;;;;;;;14.20;100.00;95621.16;5117929;27;24430;-73
2023/07/03 01:59:21;;;;;;;20.77;13.53;;;;;;;14.34;100.00;95614.88;5115689;27;25002;-74
2023/07/03 02:01:56;;;;;;;25.05;13.55;;;;;;;14.45;100.00;95614.84;5107786;27;24433;-74
2023/07/03 02:04:28;;;;;;;24.08;13.52;;;;;;;14.50;100.00;95610.13;5115633;27;24485;-73
2023/07/03 02:06:57;;;;;;;20.88;13.23;;;;;;;14.51;100.00;95612.59;5112166;27;24495;-72
2023/07/03 02:09:24;;;;;;;19.88;13.15;;;;;;;14.54;100.00;95603.72;5111625;27;24974;-73
2023/07/03 02:11:53;;;;;;;20.95;13.75;;;;;;;14.54;100.00;95610.72;5111169;27;24438;-73
2023/07/03 02:14:20;;;;;;;22.23;14.07;;;;;;;14.55;100.00;95612.34;5118544;28;24458;-73
2023/07/03 02:16:47;;;;;;;23.50;13.20;;;;;;;14.43;100.00;95612.38;5110726;27;24435;-73
2023/07/03 02:19:15;;;;;;;20.77;13.77;;;;;;;14.36;100.00;95610.38;5101560;28;24495;-73
2023/07/03 02:21:43;;;;;;;22.25;13.23;;;;;;;14.36;100.00;95612.97;5111495;28;24980;-73
2023/07/03 02:24:10;;;;;;;20.00;13.10;;;;;;;14.33;100.00;95611.44;5103501;28;24795;-72
2023/07/03 02:26:37;;;;;;;19.80;12.68;;;;;;;14.46;100.00;95617.34;5115156;28;24437;-72
2023/07/03 02:29:04;;;;;;;22.58;12.77;;;;;;;14.45;100.00;95612.22;5108639;28;24428;-73
2023/07/03 02:31:31;;;;;;;21.65;14.00;;;;;;;14.48;100.00;95615.41;5115230;28;24437;-73
2023/07/03 02:33:57;;;;;;;27.40;13.82;;;;;;;14.49;100.00;95614.47;5109438;28;24472;-73
2023/07/03 02:36:29;;;;;;;24.42;13.48;;;;;;;14.47;100.00;95615.56;5116594;28;24491;-73
2023/07/03 02:38:55;;;;;;;18.58;12.32;;;;;;;14.54;100.00;95608.94;5110928;28;24533;-73
2023/07/03 02:41:22;;;;;;;19.33;12.75;;;;;;;14.61;100.00;95607.47;5111983;28;24437;-73
2023/07/03 02:43:49;;;;;;;19.52;12.27;;;;;;;14.70;100.00;95611.09;5111446;28;24434;-73
2023/07/03 02:46:17;;;;;;;27.85;13.57;;;;;;;14.78;100.00;95608.69;5115147;28;24433;-73
2023/07/03 02:48:43;;;;;;;24.52;12.43;;;;;;;14.81;100.00;95605.00;5118323;28;24435;-73
2023/07/03 02:51:10;;;;;;;21.85;13.32;;;;;;;14.67;100.00;95603.53;5116967;28;25043;-73
2023/07/03 02:53:36;;;;;;;25.67;13.23;;;;;;;14.45;100.00;95601.81;5116700;28;24479;-73
2023/07/03 02:56:02;;;;;;;24.27;13.70;;;;;;;14.49;100.00;95593.63;5110317;28;25059;-73
2023/07/03 02:58:29;;;;;;;21.35;13.50;;;;;;;14.42;100.00;95592.44;5118394;28;25052;-73
2023/07/03 03:00:56;;;;;;;18.30;12.13;;;;;;;14.55;100.00;95602.75;5115789;28;24983;-73
2023/07/03 03:03:24;;;;;;;19.38;12.88;;;;;;;14.42;100.00;95594.22;5115074;28;24438;-73
2023/07/03 03:05:51;;;;;;;24.00;12.80;;;;;;;14.60;100.00;95590.16;5113872;28;25000;-73
2023/07/03 03:08:18;;;;;;;17.73;11.93;;;;;;;14.67;100.00;95600.91;5110222;28;24433;-73
2023/07/03 03:10:44;;;;;;;18.30;11.80;;;;;;;14.71;100.00;95590.13;5118535;28;25001;-73
2023/07/03 03:13:11;;;;;;;22.77;13.00;;;;;;;14.66;100.00;95599.28;5117431;28;25026;-73
2023/07/03 03:15:37;;;;;;;20.05;12.55;;;;;;;14.69;100.00;95596.44;5111439;28;24426;-73
2023/07/03 03:18:04;;;;;;;24.98;13.23;;;;;;;14.60;100.00;95594.56;5105070;28;24440;-73
2023/07/03 03:20:31;;;;;;;20.05;12.73;;;;;;;14.59;100.00;95596.34;5110034;28;24490;-73
2023/07/03 03:22:58;;;;;;;21.60;13.10;;;;;;;14.61;100.00;95596.19;5109618;28;24441;-73
2023/07/03 03:25:24;;;;;;;19.65;12.02;;;;;;;14.63;100.00;95600.34;5110400;28;24444;-73
2023/07/03 03:27:51;;;;;;;23.55;12.93;;;;;;;14.55;100.00;95597.53;5108557;28;24441;-73
2023/07/03 03:30:17;;;;;;;17.23;11.73;;;;;;;14.68;100.00;95597.34;5108868;27;24440;-72
2023/07/03 03:32:44;;;;;;;17.42;12.20;;;;;;;14.67;100.00;95591.31;5113198;27;24877;-72
2023/07/03 03:35:10;;;;;;;20.35;12.27;;;;;;;14.69;100.00;95593.81;5105848;27;24854;-72
2023/07/03 03:37:38;;;;;;;27.97;13.43;;;;;;;14.56;100.00;95593.97;5113826;27;24522;-73
2023/07/03 03:40:08;;;;;;;20.07;11.87;;;;;;;14.55;100.00;95591.50;5112975;27;24445;-73
2023/07/03 03:42:34;;;;;;;23.75;12.95;;;;;;;14.54;100.00;95595.06;5113203;27;24836;-73
2023/07/03 03:45:01;;;;;;;17.35;11.65;;;;;;;14.58;100.00;95592.09;5113021;27;24437;-72
2023/07/03 03:47:27;;;;;;;23.58;13.02;;;;;;;14.52;100.00;95595.19;5118719;27;24450;-73
2023/07/03 03:49:54;;;;;;;23.75;12.98;;;;;;;14.43;100.00;95591.53;5111157;27;24430;-73
2023/07/03 03:52:20;;;;;;;22.20;12.02;;;;;;;14.51;100.00;95596.13;5118784;27;24525;-72
2023/07/03 03:54:48;;;;;;;23.42;12.05;;;;;;;14.56;100.00;95588.75;5104470;27;24502;-72
2023/07/03 03:57:15;;;;;;;19.45;12.32;;;;;;;14.61;100.00;95589.22;5121330;27;24441;-73
2023/07/03 03:59:41;;;;;;;22.52;12.15;;;;;;;14.60;100.00;95591.94;5114491;27;24457;-73
2023/07/03 04:02:08;;;;;;;18.52;11.63;;;;;;;14.73;100.00;95596.03;5114422;27;24498;-73
2023/07/03 04:04:35;;;;;;;17.13;11.43;;;;;;;14.83;100.00;95601.34;5109650;27;24491;-73
2023/07/03 04:07:01;;;;;;;20.50;11.68;;;;;;;14.90;100.00;95606.84;5110712;27;24437;-73
2023/07/03 04:09:28;;;;;;;16.38;11.75;;;;;;;14.92;100.00;95604.94;5117052;27;24497;-72
2023/07/03 04:11:56;;;;;;;20.13;11.98;;;;;;;14.92;100.00;95605.78;5119354;27;24441;-73
2023/07/03 04:14:22;;;;;;;21.17;12.27;;;;;;;14.92;100.00;95604.94;5119524;27;24460;-73
2023/07/03 04:16:50;;;;;;;17.52;11.02;;;;;;;14.88;100.00;95609.59;5121850;27;24490;-72
2023/07/03 04:19:18;;;;;;;18.75;11.50;;;;;;;14.95;100.00;95608.13;5105801;27;24438;-72
2023/07/03 04:21:45;;;;;;;18.67;12.35;;;;;;;14.91;100.00;95608.53;5116706;27;24461;-72
2023/07/03 04:24:11;;;;;;;36.95;12.80;;;;;;;14.85;100.00;95609.84;5108068;27;24449;-73
2023/07/03 04:26:38;;;;;;;17.05;11.57;;;;;;;14.93;100.00;95612.63;5113214;27;24444;-73
2023/07/03 04:29:05;;;;;;;18.02;12.02;;;;;;;15.03;100.00;95607.50;5111079;27;25063;-72
2023/07/03 04:31:33;;;;;;;22.65;11.45;;;;;;;15.07;100.00;95614.13;5120058;27;25088;-72
2023/07/03 04:34:00;;;;;;;18.70;11.80;;;;;;;15.16;100.00;95617.72;5105814;27;24461;-72
2023/07/03 04:36:26;;;;;;;22.27;11.23;;;;;;;15.19;100.00;95620.09;5107918;27;25005;-72
2023/07/03 04:38:56;;;;;;;21.05;11.45;;;;;;;15.22;100.00;95627.66;5105661;27;24434;-73
2023/07/03 04:41:24;;;;;;;20.55;11.40;;;;;;;15.24;100.00;95618.75;5108444;28;24861;-72
2023/07/03 04:43:51;;;;;;;20.58;11.63;;;;;;;15.24;100.00;95623.97;5107858;27;24521;-72
2023/07/03 04:46:23;;;;;;;17.58;11.48;;;;;;;15.35;100.00;95615.25;5111634;27;24444;-73
2023/07/03 04:48:50;;;;;;;17.77;10.30;;;;;;;15.39;100.00;95628.88;5113096;27;24448;-73
2023/07/03 04:51:16;;;;;;;22.85;11.48;;;;;;;15.45;100.00;95623.13;5105249;27;25029;-73
2023/07/03 04:53:43;;;;;;;15.35;10.93;;;;;;;15.47;100.00;95624.66;5111721;27;24433;-72
2023/07/03 04:56:10;;;;;;;17.92;11.07;;;;;;;15.55;100.00;95625.78;5114843;27;24485;-73
2023/07/03 04:58:39;;;;;;;22.27;11.20;;;;;;;15.58;100.00;95622.91;5116712;27;24840;-75
2023/07/03 05:01:06;;;;;;;19.15;10.95;;;;;;;15.72;100.00;95630.41;5103793;27;25014;-74
2023/07/03 05:03:33;;;;;;;18.65;11.00;;;;;;;15.69;100.00;95631.50;5114518;27;24448;-74
2023/07/03 05:06:00;;;;;;;22.88;10.63;;;;;;;15.73;100.00;95630.28;5113617;27;24597;-73
2023/07/03 05:08:27;;;;;;;16.40;10.65;;;;;;;15.78;100.00;95627.28;5113188;27;24441;-72
2023/07/03 05:10:53;;;;;;;17.58;10.68;;;;;;;15.81;100.00;95627.03;5118997;27;24453;-74
2023/07/03 05:13:20;;;;;;;17.67;10.50;;;;;;;15.83;100.00;95626.88;5108755;27;24812;-75
2023/07/03 05:15:46;;;;;;;20.53;11.30;;;;;;;15.86;100.00;95627.44;5116744;27;24453;-75
2023/07/03 05:18:13;;;;;;;17.98;11.18;;;;;;;15.83;100.00;95635.53;5107036;27;24429;-76
2023/07/03 05:20:42;;;;;;;20.80;10.35;;;;;;;15.87;100.00;95636.94;5108940;27;24506;-74
2023/07/03 05:23:09;;;;;;;16.42;9.98;;;;;;;15.90;100.00;95638.44;5098368;27;24527;-74
2023/07/03 05:25:35;;;;;;;17.40;10.93;;;;;;;15.96;100.00;95635.31;5114530;27;24429;-75
2023/07/03 05:28:02;;;;;;;17.08;10.63;;;;;;;15.95;100.00;95633.69;5118262;27;24445;-75
2023/07/03 05:30:28;;;;;;;17.42;11.00;;;;;;;15.95;100.00;95637.09;5103639;27;24447;-75
2023/07/03 05:32:55;;;;;;;16.53;10.17;;;;;;;16.04;100.00;95629.44;5108341;27;25026;-75
2023/07/03 05:35:21;;;;;;;16.92;10.15;;;;;;;16.10;100.00;95637.56;5107275;28;24552;-75
2023/07/03 05:37:49;;;;;;;17.90;10.25;;;;;;;16.20;100.00;95634.97;5116965;27;24441;-75
2023/07/03 05:40:16;;;;;;;15.05;9.65;;;;;;;16.23;98.51;95644.34;5111797;27;24831;-75
2023/07/03 05:42:43;;;;;;;20.77;10.63;;;;;;;16.37;96.03;95639.53;5110787;27;25039;-75
2023/07/03 05:45:10;;;;;;;18.38;10.20;;;;;;;16.37;97.80;95641.34;5100627;28;24498;-75
2023/07/03 05:47:37;;;;;;;18.30;10.37;;;;;;;16.34;97.66;95641.59;5101746;27;24438;-74
2023/07/03 05:50:04;;;;;;;16.60;9.95;;;;;;;16.44;97.51;95647.69;5102897;27;25027;-75
2023/07/03 05:52:33;;;;;;;16.80;10.10;;;;;;;16.49;99.13;95647.28;5109131;27;24466;-75
2023/07/03 05:55:01;;;;;;;14.20;9.88;;;;;;;16.60;99.05;95645.34;5119922;27;24948;-73
2023/07/03 05:57:27;;;;;;;16.23;9.63;;;;;;;16.70;96.70;95651.41;5116466;27;24795;-74
2023/07/03 05:59:54;;;;;;;25.80;9.77;;;;;;;16.79;96.14;95647.19;5104737;27;25036;-75
2023/07/03 06:02:21;;;;;;;17.17;10.18;;;;;;;16.84;95.01;95649.41;5100965;27;24997;-73
2023/07/03 06:04:47;;;;;;;20.27;10.45;;;;;;;16.82;97.08;95652.16;5112888;27;25049;-73
2023/07/03 06:07:14;;;;;;;17.17;9.88;;;;;;;16.90;94.72;95654.06;5106158;27;24440;-73
2023/07/03 06:09:40;;;;;;;24.67;9.32;;;;;;;17.00;94.78;95647.06;5109354;27;24718;-73
2023/07/03 06:12:09;;;;;;;14.30;9.20;;;;;;;17.12;91.77;95645.94;5105408;27;24826;-73
2023/07/03 06:14:35;;;;;;;17.07;9.20;;;;;;;17.15;91.60;95658.75;5110184;27;24500;-73
2023/07/03 06:17:02;;;;;;;18.42;9.88;;;;;;;17.16;94.12;95662.19;5115398;28;24442;-73
2023/07/03 06:19:29;;;;;;;17.95;8.75;;;;;;;17.29;92.38;95667.97;5109330;28;24432;-74
2023/07/03 06:21:57;;;;;;;19.55;9.60;;;;;;;17.30;91.52;95661.75;5110379;28;24438;-72
2023/07/03 06:24:23;;;;;;;16.15;9.95;;;;;;;17.39;91.16;95670.53;5104262;28;24495;-69
2023/07/03 06:26:50;;;;;;;21.98;9.60;;;;;;;17.40;90.41;95667.81;5114681;28;24483;-73
2023/07/03 06:29:19;;;;;;;24.90;9.60;;;;;;;17.44;89.64;95670.16;5104309;28;24433;-74
2023/07/03 06:31:45;;;;;;;26.48;9.73;;;;;;;17.55;84.84;95664.75;5117055;28;24487;-75
2023/07/03 06:34:12;;;;;;;16.45;9.00;;;;;;;17.62;86.63;95668.47;5120669;28;24445;-75
2023/07/03 06:36:38;;;;;;;15.93;8.70;;;;;;;17.61;85.80;95675.50;5112660;28;24803;-75
2023/07/03 06:39:05;;;;;;;16.58;9.07;;;;;;;17.60;83.54;95676.44;5116330;28;25060;-75
2023/07/03 06:41:34;;;;;;;17.08;9.07;;;;;;;17.66;85.53;95677.69;5115195;28;24739;-75
2023/07/03 06:44:00;;;;;;;19.38;9.60;;;;;;;17.85;82.16;95671.59;5118854;28;25130;-74
2023/07/03 06:46:28;;;;;;;16.50;8.30;;;;;;;17.95;81.98;95666.28;5115137;28;24437;-74
2023/07/03 06:48:55;;;;;;;17.77;8.50;;;;;;;17.93;82.40;95674.31;5116327;28;24442;-75
2023/07/03 06:51:23;;;;;;;21.05;8.88;;;;;;;18.04;81.27;95670.69;5114636;28;24479;-74
2023/07/03 06:53:49;;;;;;;22.93;8.67;;;;;;;17.83;81.03;95676.94;5115746;28;24472;-75
2023/07/03 06:56:15;;;;;;;18.55;8.65;;;;;;;17.74;79.16;95675.16;5113725;28;24445;-74
2023/07/03 06:58:42;;;;;;;22.30;9.35;;;;;;;17.61;79.63;95670.25;5118147;28;24458;-75
2023/07/03 07:01:10;;;;;;;17.27;8.30;;;;;;;17.77;78.87;95676.72;5116653;28;24772;-74
2023/07/03 07:03:39;;;;;;;16.80;8.80;;;;;;;17.70;79.52;95679.03;5113975;28;24439;-74
2023/07/03 07:06:11;;;;;;;16.83;8.38;;;;;;;17.57;80.41;95678.50;5115487;27;24437;-74
2023/07/03 07:08:37;;;;;;;15.37;8.60;;;;;;;17.50;81.90;95686.13;5114961;27;24435;-74
2023/07/03 07:11:10;;;;;;;18.83;9.07;;;;;;;17.45;83.44;95687.50;5116157;27;24455;-74
2023/07/03 07:13:39;;;;;;;18.95;8.65;;;;;;;17.38;85.49;95693.28;5112425;27;24436;-74
2023/07/03 07:16:05;;;;;;;20.38;9.05;;;;;;;17.46;85.64;95692.59;5109539;27;25043;-70
2023/07/03 07:18:32;;;;;;;24.13;9.25;;;;;;;17.46;85.93;95689.97;5102789;27;24445;-74
2023/07/03 07:21:00;;;;;;;21.17;9.45;;;;;;;17.29;88.03;95693.31;5123659;27;24804;-76
2023/07/03 07:23:27;;;;;;;17.37;8.20;;;;;;;17.41;88.07;95687.78;5110584;27;24438;-71
2023/07/03 07:25:54;;;;;;;17.08;9.07;;;;;;;17.41;87.25;95694.81;5121134;27;24429;-73
2023/07/03 07:28:21;;;;;;;19.05;8.85;;;;;;;17.39;88.18;95691.50;5117459;27;24981;-73
2023/07/03 07:30:48;;;;;;;17.50;9.17;;;;;;;17.59;87.43;95687.06;5129213;27;24431;-72
2023/07/03 07:33:15;;;;;;;17.45;8.63;;;;;;;17.59;85.55;95690.50;5110480;27;24536;-73
2023/07/03 07:35:42;;;;;;;25.95;9.13;;;;;;;17.71;85.42;95691.16;5105145;27;24461;-73
2023/07/03 07:38:10;;;;;;;17.48;8.65;;;;;;;17.88;83.54;95689.63;5115656;27;24436;-74
2023/07/03 07:40:36;;;;;;;18.83;8.40;;;;;;;17.87;81.26;95688.81;5106779;27;24811;-73
2023/07/03 07:43:03;;;;;;;17.60;9.10;;;;;;;18.10;80.81;95691.06;5106823;27;24803;-72
2023/07/03 07:45:31;;;;;;;31.27;9.48;;;;;;;18.16;80.44;95702.75;5112707;27;24441;-72
2023/07/03 07:47:57;;;;;;;22.33;9.93;;;;;;;17.93;79.33;95699.69;5082365;27;24423;-73
2023/07/03 07:50:24;;;;;;;15.40;8.33;;;;;;;17.88;79.40;95694.88;5068124;28;24471;-73
2023/07/03 07:52:50;;;;;;;15.00;8.23;;;;;;;18.20;76.65;95696.25;5081049;28;25056;-72
2023/07/03 07:55:18;;;;;;;22.98;8.65;;;;;;;18.25;78.86;95699.28;5079744;28;24552;-73
2023/07/03 07:57:45;;;;;;;23.27;8.88;;;;;;;18.00;79.54;95685.88;5078637;28;25035;-73
2023/07/03 08:00:12;;;;;;;17.92;8.52;;;;;;;18.04;79.95;95695.09;5077061;28;24438;-73
2023/07/03 08:02:39;;;;;;;19.13;9.15;;;;;;;18.01;81.66;95698.00;5068633;28;24515;-73
2023/07/03 08:05:06;;;;;;;22.70;8.88;;;;;;;18.02;80.63;95693.56;5079690;28;24475;-74
2023/07/03 08:07:32;;;;;;;23.70;9.10;;;;;;;17.98;79.61;95693.03;5077830;28;24499;-74
2023/07/03 08:09:59;;;;;;;18.17;8.77;;;;;;;18.21;79.43;95698.75;5075730;28;24969;-73
2023/07/03 08:12:27;;;;;;;15.73;8.80;;;;;;;18.10;81.39;95693.69;5071616;28;24529;-73
2023/07/03 08:14:53;;;;;;;17.33;8.20;;;;;;;18.04;79.71;95702.94;5075707;28;24435;-73
2023/07/03 08:17:20;;;;;;;17.45;8.95;;;;;;;18.01;78.14;95708.47;5075285;28;24454;-72
2023/07/03 08:19:46;;;;;;;22.40;9.63;;;;;;;18.06;79.59;95706.25;5063241;28;25009;-72
2023/07/03 08:22:12;;;;;;;17.88;8.55;;;;;;;17.98;81.03;95711.38;5068333;28;24457;-72
2023/07/03 08:24:39;;;;;;;31.20;9.63;;;;;;;17.91;78.10;95702.47;5058143;28;24488;-76
2023/07/03 08:27:06;;;;;;;18.77;8.75;;;;;;;18.08;77.93;95704.31;5066535;28;24999;-73
2023/07/03 08:29:34;;;;;;;18.05;7.47;;;;;;;18.22;77.46;95705.63;5064546;28;24466;-76
2023/07/03 08:32:00;;;;;;;17.65;8.32;;;;;;;18.24;76.79;95718.59;5062840;28;24435;-73
2023/07/03 08:34:27;;;;;;;20.10;8.10;;;;;;;18.46;74.13;95701.66;5064617;28;24545;-73
2023/07/03 08:36:53;;;;;;;16.10;8.17;;;;;;;18.44;73.86;95707.06;5073220;28;24897;-73
2023/07/03 08:39:20;;;;;;;17.17;8.10;;;;;;;18.29;73.89;95713.75;5076450;28;25048;-73
2023/07/03 08:41:51;;;;;;;17.85;7.65;;;;;;;18.45;71.83;95702.63;5065775;28;24496;-73
2023/07/03 08:44:18;;;;;;;17.60;8.20;;;;;;;18.65;72.49;95705.97;5076232;28;24445;-72
2023/07/03 08:46:48;;;;;;;17.85;8.00;;;;;;;18.65;69.34;95701.56;5065840;28;24442;-72
2023/07/03 08:49:17;;;;;;;14.50;7.60;;;;;;;18.79;71.58;95702.88;5073879;28;24441;-72
2023/07/03 08:51:44;;;;;;;17.48;8.02;;;;;;;18.92;72.61;95705.13;5079057;28;24434;-72
2023/07/03 08:54:19;;;;;;;16.88;7.50;;;;;;;18.85;72.03;95703.09;5073245;28;24491;-73
2023/07/03 08:56:47;;;;;;;16.35;7.63;;;;;;;18.95;71.63;95715.31;5073190;28;24521;-72
2023/07/03 08:59:14;;;;;;;14.67;6.73;;;;;;;18.63;69.86;95706.13;5072576;28;24434;-72
2023/07/03 09:01:48;;;;;;;15.70;7.57;;;;;;;18.71;68.98;95708.84;5057642;28;24443;-73
2023/07/03 09:04:28;;;;;;;12.15;6.78;;;;;;;18.65;70.93;95709.44;5072680;28;24442;-72
2023/07/03 09:06:58;;;;;;;17.67;7.53;;;;;;;18.77;71.69;95710.06;5067445;28;24435;-72
2023/07/03 09:09:31;;;;;;;13.25;6.55;;;;;;;18.52;69.90;95704.53;5058737;28;24457;-72
2023/07/03 09:12:03;;;;;;;14.40;6.70;;;;;;;18.74;70.63;95705.13;5075915;28;24797;-72
2023/07/03 09:14:37;;;;;;;14.35;6.90;;;;;;;19.30;66.48;95706.63;5061228;28;24450;-72
2023/07/03 09:17:08;;;;;;;15.85;7.18;;;;;;;19.61;66.35;95708.81;5079629;28;24446;-74
2023/07/03 09:19:37;;;;;;;13.27;6.78;;;;;;;19.79;64.01;95699.94;5072282;28;24487;-74
2023/07/03 09:22:08;;;;;;;13.18;6.28;;;;;;;20.05;63.33;95704.38;5076653;28;24519;-76
2023/07/03 09:24:38;;;;;;;11.35;6.18;;;;;;;20.11;62.21;95708.19;5065727;28;24434;-76
2023/07/03 09:27:12;;;;;;;19.42;7.15;;;;;;;19.90;60.66;95706.75;5073041;28;24983;-76
2023/07/03 09:29:40;;;;;;;16.85;7.25;;;;;;;19.76;62.11;95696.81;5073753;28;24434;-73
2023/07/03 09:32:08;;;;;;;12.82;6.15;;;;;;;19.65;62.57;95707.56;5072257;28;24441;-74
2023/07/03 09:35:00;;;;;;;18.15;6.80;;;;;;;19.03;63.92;95702.28;5065044;28;24463;-73
2023/07/03 09:37:27;;;;;;;15.63;6.47;;;;;;;19.41;63.50;95711.63;5070165;28;24450;-73
2023/07/03 09:39:54;;;;;;;15.77;6.33;;;;;;;20.04;60.45;95721.94;5075346;28;25409;-73
2023/07/03 09:42:22;;;;;;;15.10;6.90;;;;;;;19.67;59.47;95710.88;5072867;28;24511;-73
2023/07/03 09:44:50;;;;;;;9.95;6.03;;;;;;;19.78;60.19;95706.19;5068442;28;24439;-73
2023/07/03 09:47:22;;;;;;;10.13;5.65;;;;;;;20.44;58.08;95701.28;5077492;28;24443;-73
2023/07/03 09:49:49;;;;;;;11.18;5.70;;;;;;;20.79;54.33;95702.88;5064837;28;24530;-73
2023/07/03 09:52:16;;;;;;;15.17;4.60;;;;;;;20.66;51.75;95715.69;5076739;28;24433;-73
2023/07/03 09:54:44;;;;;;;8.23;4.30;;;;;;;21.28;50.61;95697.69;5066895;28;24794;-73
2023/07/03 09:57:20;;;;;;;8.27;4.72;;;;;;;21.07;52.31;95707.88;5078450;28;24451;-73
2023/07/03 09:59:48;;;;;;;10.35;4.45;;;;;;;20.97;50.99;95708.84;5054123;28;21322;-73
2023/07/03 10:02:16;;;;;;;7.68;3.85;;;;;;;20.78;51.58;95714.41;5071977;28;24434;-73
2023/07/03 10:04:47;;;;;;;9.25;4.65;;;;;;;20.29;54.22;95719.47;5070396;28;24534;-73
2023/07/03 10:07:15;;;;;;;15.73;4.63;;;;;;;20.30;54.83;95721.91;5080860;28;24429;-73
2023/07/03 10:09:43;;;;;;;8.00;4.10;;;;;;;20.27;54.59;95729.31;5068895;28;24485;-73
2023/07/03 10:12:20;;;;;;;8.43;3.65;;;;;;;19.72;55.54;95722.56;5071585;28;24433;-73
2023/07/03 10:14:52;;;;;;;7.35;3.83;;;;;;;19.87;55.38;95727.25;5064765;28;24435;-73
2023/07/03 10:17:21;;;;;;;9.65;3.97;;;;;;;19.74;55.44;95727.69;5079505;28;24570;-73
2023/07/03 10:19:54;;;;;;;10.98;4.03;;;;;;;19.84;56.71;95736.31;5062876;28;24439;-73
2023/07/03 10:22:21;;;;;;;7.82;4.20;;;;;;;19.72;57.58;95740.13;5067674;28;24434;-73
2023/07/03 10:24:48;;;;;;;7.13;4.45;;;;;;;19.38;58.56;95735.56;5051106;28;24442;-73
2023/07/03 10:27:19;;;;;;;14.10;4.78;;;;;;;19.29;58.15;95731.25;5076626;28;24441;-73
2023/07/03 10:29:53;;;;;;;7.65;4.22;;;;;;;19.33;60.16;95736.03;5073357;28;24434;-73
2023/07/03 10:32:20;;;;;;;13.90;4.68;;;;;;;19.18;60.79;95740.16;5073889;28;24474;-73
2023/07/03 10:34:55;;;;;;;10.47;4.60;;;;;;;19.32;60.88;95734.41;5060637;28;24976;-73
2023/07/03 10:37:23;;;;;;;10.80;4.73;;;;;;;19.64;59.44;95751.41;5070652;28;24508;-74
2023/07/03 10:39:54;;;;;;;12.13;5.25;;;;;;;19.47;62.57;95749.63;5069275;28;24576;-74
2023/07/03 10:42:26;;;;;;;9.35;4.65;;;;;;;19.83;60.94;95751.22;5077225;28;25037;-74
2023/07/03 10:44:58;;;;;;;10.93;5.45;;;;;;;20.08;61.07;95750.56;5071014;28;24442;-75
2023/07/03 10:47:32;;;;;;;10.77;5.15;;;;;;;20.37;60.63;95758.94;5088655;28;24991;-74
2023/07/03 10:50:00;;;;;;;9.98;5.28;;;;;;;20.23;62.62;95756.91;5073834;28;24431;-75
2023/07/03 10:52:34;;;;;;;10.95;5.90;;;;;;;20.39;61.61;95751.72;5079367;28;24532;-75
2023/07/03 10:55:10;;;;;;;14.23;6.13;;;;;;;20.16;62.25;95743.53;5070937;28;24439;-73
2023/07/03 10:57:43;;;;;;;17.10;5.85;;;;;;;19.77;63.56;95751.84;5076649;28;26238;-73
2023/07/03 11:00:15;;;;;;;7.85;5.43;;;;;;;19.71;65.88;95749.00;5059684;28;24441;-73
2023/07/03 11:02:51;;;;;;;13.43;5.82;;;;;;;19.58;63.85;95757.25;5065728;28;24438;-73
2023/07/03 11:05:25;;;;;;;9.75;5.65;;;;;;;19.53;64.84;95755.06;5057440;28;24470;-73
2023/07/03 11:07:58;;;;;;;12.20;5.53;;;;;;;19.36;66.92;95757.72;5063666;28;24466;-72
2023/07/03 11:10:32;;;;;;;16.33;5.78;;;;;;;19.54;65.36;95748.84;5078779;28;24442;-73
2023/07/03 11:13:06;;;;;;;11.15;5.50;;;;;;;19.85;64.24;95756.34;5067262;28;25011;-72
2023/07/03 11:15:41;;;;;;;11.97;5.33;;;;;;;20.14;63.38;95757.84;5062850;28;24484;-73
2023/07/03 11:18:26;;;;;;;11.25;5.55;;;;;;;20.12;64.57;95759.78;5067638;28;24446;-74
2023/07/03 11:21:02;;;;;;;15.32;6.90;;;;;;;19.94;67.60;95772.97;5072145;28;24435;-74